Time;durP1;ratioP1;P1;durP2;ratioP2;P2;SDS_P1;SDS_P2;PMS_P1;PMS_P2;Temp;Humidity;BMP_temperature;BMP_pressure;BME280_temperature;BME280_humidity;BME280_pressure;Samples;Min_cycle;Max_cycle;Signal;HPM_P1;HPM_P2
2022/11/26 00:00:49;;;;;;;2.72;2.50;;;16.10;62.00;;;;;;5055081;28;20168;-68
2022/11/26 00:03:15;;;;;;;5.07;2.45;;;16.00;61.90;;;;;;5055814;28;20190;-69
2022/11/26 00:05:45;;;;;;;2.20;2.00;;;16.00;62.00;;;;;;5055469;28;20203;-69
2022/11/26 00:08:33;;;;;;;3.80;2.90;;;16.00;62.00;;;;;;5053748;28;20182;-68
2022/11/26 00:10:59;;;;;;;4.13;2.88;;;16.00;62.00;;;;;;5054675;28;20182;-69
2022/11/26 00:13:27;;;;;;;2.70;2.45;;;16.00;62.00;;;;;;5055821;28;20178;-71
2022/11/26 00:15:53;;;;;;;4.05;2.53;;;16.00;62.00;;;;;;5054495;28;20182;-70
2022/11/26 00:18:19;;;;;;;3.90;2.53;;;15.90;61.90;;;;;;5055631;28;20265;-71
2022/11/26 00:20:45;;;;;;;4.13;2.55;;;15.90;61.90;;;;;;5055252;28;20655;-71
2022/11/26 00:23:19;;;;;;;2.92;2.40;;;15.90;61.90;;;;;;5054705;28;20186;-70
2022/11/26 00:25:46;;;;;;;3.75;2.40;;;15.90;61.90;;;;;;5054078;28;20210;-70
2022/11/26 00:28:21;;;;;;;2.47;2.10;;;15.90;61.90;;;;;;5055400;28;20183;-69
2022/11/26 00:30:46;;;;;;;3.88;2.33;;;15.90;61.90;;;;;;5054324;28;20176;-68
2022/11/26 00:33:12;;;;;;;3.13;2.28;;;15.90;61.90;;;;;;5055208;28;20186;-69
2022/11/26 00:35:37;;;;;;;3.65;2.72;;;15.80;61.80;;;;;;5054657;28;20171;-69
2022/11/26 00:38:03;;;;;;;4.90;2.40;;;15.90;61.90;;;;;;5054595;28;20540;-70
2022/11/26 00:40:31;;;;;;;3.08;2.15;;;15.80;61.80;;;;;;5055025;28;20610;-70
2022/11/26 00:42:56;;;;;;;3.17;2.70;;;15.80;61.80;;;;;;5053060;28;20660;-70
2022/11/26 00:45:24;;;;;;;3.10;2.33;;;15.80;61.80;;;;;;5055065;28;20171;-69
2022/11/26 00:47:50;;;;;;;3.03;2.30;;;15.80;61.80;;;;;;5053844;28;20229;-68
2022/11/26 00:50:19;;;;;;;4.45;2.42;;;15.80;61.80;;;;;;5054058;28;20174;-68
2022/11/26 00:52:46;;;;;;;3.92;2.47;;;15.80;61.80;;;;;;5054569;28;20482;-69
2022/11/26 00:55:20;;;;;;;5.03;2.75;;;15.80;62.70;;;;;;5053855;28;20175;-70
2022/11/26 00:57:45;;;;;;;3.38;2.67;;;15.80;61.90;;;;;;5052482;28;20187;-69
2022/11/26 01:00:19;;;;;;;4.38;2.78;;;15.80;61.80;;;;;;5054904;28;20250;-68
2022/11/26 01:02:45;;;;;;;3.08;2.55;;;15.80;61.80;;;;;;5054393;28;20213;-68
2022/11/26 01:05:10;;;;;;;4.47;2.50;;;15.70;61.70;;;;;;5054306;28;20207;-68
2022/11/26 01:07:36;;;;;;;2.67;2.30;;;15.70;61.80;;;;;;5054192;28;20214;-69
2022/11/26 01:10:01;;;;;;;3.20;2.50;;;15.70;62.60;;;;;;5053285;28;20258;-69
2022/11/26 01:12:27;;;;;;;4.57;2.75;;;15.70;61.70;;;;;;5053916;28;20274;-71
2022/11/26 01:14:52;;;;;;;2.88;2.47;;;15.70;61.80;;;;;;5054286;28;20194;-72
2022/11/26 01:17:18;;;;;;;3.78;2.67;;;15.70;61.80;;;;;;5054249;28;20341;-72
2022/11/26 01:19:44;;;;;;;3.47;2.25;;;15.70;61.70;;;;;;5053599;28;20247;-71
2022/11/26 01:22:27;;;;;;;5.68;2.75;;;15.70;61.70;;;;;;5054247;28;20532;-70
2022/11/26 01:24:53;;;;;;;4.00;2.83;;;15.70;61.70;;;;;;5053625;28;20263;-70
2022/11/26 01:27:19;;;;;;;2.83;2.38;;;15.70;61.80;;;;;;5054065;28;20257;-69
2022/11/26 01:29:45;;;;;;;4.30;2.75;;;15.70;61.70;;;;;;5054062;28;20207;-69
2022/11/26 01:32:10;;;;;;;3.85;2.63;;;15.70;61.70;;;;;;5053613;28;20175;-69
2022/11/26 01:34:36;;;;;;;2.38;2.10;;;15.70;61.80;;;;;;5054021;28;20218;-69
2022/11/26 01:37:01;;;;;;;2.92;2.40;;;15.60;61.70;;;;;;5054039;28;20171;-70
2022/11/26 01:39:27;;;;;;;3.63;2.50;;;15.60;61.70;;;;;;5053403;28;20175;-71
2022/11/26 01:42:23;;;;;;;3.13;2.47;;;15.60;61.70;;;;;;5053681;28;20171;-70
2022/11/26 01:44:48;;;;;;;3.55;2.92;;;15.60;61.70;;;;;;5053833;28;20176;-69
2022/11/26 01:47:20;;;;;;;4.05;3.08;;;15.60;61.60;;;;;;5053095;28;20214;-69
2022/11/26 01:50:23;;;;;;;4.05;2.85;;;15.60;61.60;;;;;;5053655;28;20187;-69
2022/11/26 01:52:48;;;;;;;2.70;2.50;;;15.60;61.60;;;;;;5053305;28;20229;-69
2022/11/26 01:55:15;;;;;;;3.05;2.75;;;15.60;61.70;;;;;;5051889;28;20578;-70
2022/11/26 01:57:40;;;;;;;3.22;2.50;;;15.60;61.70;;;;;;5053309;28;20649;-69
2022/11/26 02:00:08;;;;;;;3.40;2.50;;;15.60;61.70;;;;;;5052584;28;20175;-69
2022/11/26 02:02:33;;;;;;;2.60;2.40;;;15.60;61.70;;;;;;5053117;28;20638;-68
2022/11/26 02:05:15;;;;;;;2.70;2.28;;;15.60;61.70;;;;;;5052211;28;20163;-69
2022/11/26 02:07:40;;;;;;;3.22;2.90;;;15.50;61.70;;;;;;5051002;28;20249;-69
2022/11/26 02:10:07;;;;;;;4.32;2.50;;;15.60;61.70;;;;;;5053235;28;20211;-70
2022/11/26 02:12:32;;;;;;;2.63;2.30;;;15.50;61.70;;;;;;5052908;28;20587;-72
2022/11/26 02:14:58;;;;;;;3.90;2.35;;;15.50;61.60;;;;;;5051374;28;20177;-71
2022/11/26 02:17:43;;;;;;;3.00;2.47;;;15.50;61.60;;;;;;5053099;28;20237;-73
2022/11/26 02:20:45;;;;;;;3.42;2.47;;;15.50;61.60;;;;;;5053357;28;20258;-71
2022/11/26 02:23:23;;;;;;;2.65;2.38;;;15.50;61.50;;;;;;5052516;28;20179;-70
2022/11/26 02:26:09;;;;;;;4.55;2.75;;;15.50;61.60;;;;;;5052746;28;20564;-70
2022/11/26 02:29:04;;;;;;;3.22;2.35;;;15.50;61.60;;;;;;5052345;28;20175;-69
2022/11/26 02:31:55;;;;;;;5.68;2.63;;;15.50;61.60;;;;;;5050792;28;20218;-69
2022/11/26 02:34:39;;;;;;;2.85;2.55;;;15.50;61.60;;;;;;5043144;28;20179;-70
2022/11/26 02:37:32;;;;;;;5.55;2.40;;;15.50;62.40;;;;;;5050906;28;20571;-70
2022/11/26 02:39:58;;;;;;;3.05;2.30;;;15.50;61.50;;;;;;5051795;28;20190;-71
2022/11/26 02:42:25;;;;;;;2.75;2.40;;;15.40;61.50;;;;;;5052361;28;20258;-71
2022/11/26 02:44:50;;;;;;;2.53;2.22;;;15.40;61.50;;;;;;5052581;28;21087;-69
2022/11/26 02:47:16;;;;;;;2.22;2.10;;;15.40;61.40;;;;;;5051287;28;20748;-69
2022/11/26 02:49:42;;;;;;;2.80;2.25;;;15.40;62.30;;;;;;5050546;28;20179;-69
2022/11/26 02:52:07;;;;;;;3.17;2.50;;;15.40;61.40;;;;;;5051237;28;20633;-69
2022/11/26 02:54:33;;;;;;;2.55;2.35;;;15.40;61.40;;;;;;5051135;28;20170;-71
2022/11/26 02:56:59;;;;;;;2.45;2.25;;;15.40;61.40;;;;;;5051874;28;20265;-69
2022/11/26 02:59:25;;;;;;;3.72;2.45;;;15.40;61.40;;;;;;5052551;28;20275;-70
2022/11/26 03:02:10;;;;;;;2.83;2.50;;;15.40;61.40;;;;;;5051307;28;20736;-68
2022/11/26 03:04:41;;;;;;;3.28;2.42;;;15.40;61.40;;;;;;5050188;28;20648;-69
2022/11/26 03:07:07;;;;;;;3.17;2.20;;;15.40;61.40;;;;;;5052442;28;20771;-68
2022/11/26 03:09:39;;;;;;;2.88;2.58;;;15.40;61.40;;;;;;5050904;28;20174;-70
2022/11/26 03:12:05;;;;;;;2.60;2.40;;;15.30;61.30;;;;;;5051180;28;20179;-70
2022/11/26 03:14:30;;;;;;;3.05;2.22;;;15.30;61.30;;;;;;5051983;28;20300;-72
2022/11/26 03:16:56;;;;;;;2.42;2.15;;;15.40;61.40;;;;;;5052133;28;20237;-71
2022/11/26 03:19:21;;;;;;;3.55;2.40;;;15.30;61.30;;;;;;5051498;28;20172;-72
2022/11/26 03:21:47;;;;;;;3.13;2.13;;;15.30;61.30;;;;;;5051959;28;20190;-71
2022/11/26 03:24:12;;;;;;;2.83;2.20;;;15.30;61.30;;;;;;5052202;28;20175;-70
2022/11/26 03:26:38;;;;;;;2.53;2.33;;;15.30;61.30;;;;;;5051051;28;20202;-69
2022/11/26 03:29:03;;;;;;;3.28;2.30;;;15.30;61.30;;;;;;5052664;28;20171;-69
2022/11/26 03:31:29;;;;;;;2.50;2.30;;;15.30;61.30;;;;;;5051833;28;20236;-70
2022/11/26 03:33:54;;;;;;;2.80;2.30;;;15.30;61.20;;;;;;5051752;28;20244;-69
2022/11/26 03:36:20;;;;;;;2.90;2.20;;;15.30;61.30;;;;;;5052166;28;20593;-70
2022/11/26 03:38:46;;;;;;;3.50;2.67;;;15.30;61.30;;;;;;5051060;28;20638;-71
2022/11/26 03:41:11;;;;;;;2.40;2.22;;;15.30;61.30;;;;;;5052058;28;20181;-71
2022/11/26 03:43:37;;;;;;;3.05;2.60;;;15.30;61.20;;;;;;5051958;28;20254;-70
2022/11/26 03:46:02;;;;;;;2.47;2.28;;;15.20;61.20;;;;;;5051405;28;20244;-69
2022/11/26 03:48:28;;;;;;;2.58;2.13;;;15.20;61.20;;;;;;5052254;28;20175;-68
2022/11/26 03:50:53;;;;;;;2.80;2.50;;;15.20;61.20;;;;;;5051881;28;20171;-69
2022/11/26 03:53:19;;;;;;;2.85;2.10;;;15.20;61.10;;;;;;5051237;28;20175;-70
2022/11/26 03:55:45;;;;;;;2.80;2.33;;;15.20;61.10;;;;;;5051560;28;20503;-70
2022/11/26 03:58:11;;;;;;;2.13;1.85;;;15.20;61.10;;;;;;5052168;28;20218;-69
2022/11/26 04:00:36;;;;;;;3.05;2.13;;;15.20;61.10;;;;;;5051159;28;20577;-69
2022/11/26 04:03:02;;;;;;;2.58;2.17;;;15.20;61.10;;;;;;5051890;28;20654;-69
2022/11/26 04:05:28;;;;;;;2.28;2.08;;;15.20;61.10;;;;;;5051798;28;20653;-69
2022/11/26 04:07:53;;;;;;;2.47;2.28;;;15.20;61.10;;;;;;5050955;28;20190;-69
2022/11/26 04:10:19;;;;;;;2.63;2.15;;;15.20;61.10;;;;;;5051748;28;20463;-69
2022/11/26 04:12:44;;;;;;;3.28;2.15;;;15.20;61.10;;;;;;5051412;28;20194;-71
2022/11/26 04:15:10;;;;;;;2.95;2.28;;;15.20;61.10;;;;;;5051244;28;20206;-71
2022/11/26 04:17:35;;;;;;;3.20;2.20;;;15.20;61.10;;;;;;5051188;28;20333;-72
2022/11/26 04:20:01;;;;;;;2.55;2.33;;;15.20;61.10;;;;;;5051722;28;20183;-72
2022/11/26 04:22:26;;;;;;;2.80;2.10;;;15.20;61.10;;;;;;5051050;28;20629;-71
2022/11/26 04:24:52;;;;;;;3.33;2.53;;;15.20;61.10;;;;;;5054555;28;20179;-70
2022/11/26 04:27:17;;;;;;;2.95;2.13;;;15.20;61.10;;;;;;5055531;28;20207;-69
2022/11/26 04:29:43;;;;;;;3.72;1.98;;;15.20;61.10;;;;;;5054487;28;20193;-68
2022/11/26 04:32:08;;;;;;;2.35;2.15;;;15.10;61.10;;;;;;5055243;28;20640;-69
2022/11/26 04:34:34;;;;;;;2.50;1.92;;;15.10;61.00;;;;;;5054989;28;20170;-70
2022/11/26 04:36:59;;;;;;;2.20;1.95;;;15.10;61.90;;;;;;5054452;28;20179;-71
2022/11/26 04:39:25;;;;;;;3.08;2.35;;;15.10;61.00;;;;;;5055126;28;20179;-71
2022/11/26 04:41:50;;;;;;;3.38;2.17;;;15.10;61.00;;;;;;5054371;28;20171;-70
2022/11/26 04:44:16;;;;;;;2.40;2.20;;;15.10;61.00;;;;;;5055106;28;20171;-70
2022/11/26 04:46:41;;;;;;;3.45;2.58;;;15.10;61.00;;;;;;5054609;28;20550;-69
2022/11/26 04:49:07;;;;;;;2.92;2.63;;;15.10;61.90;;;;;;5054317;28;20707;-69
2022/11/26 04:51:32;;;;;;;3.40;2.30;;;15.10;61.00;;;;;;5054672;28;20210;-70
2022/11/26 04:53:58;;;;;;;2.88;2.25;;;15.10;61.00;;;;;;5054903;28;20167;-70
2022/11/26 04:56:23;;;;;;;2.72;2.42;;;15.10;61.00;;;;;;5054162;28;20584;-70
2022/11/26 04:58:49;;;;;;;2.47;2.17;;;15.10;61.00;;;;;;5054464;28;20163;-70
2022/11/26 05:01:14;;;;;;;2.55;2.25;;;15.10;61.00;;;;;;5054882;28;20175;-70
2022/11/26 05:03:40;;;;;;;2.85;2.20;;;15.00;60.90;;;;;;5053795;28;20167;-70
2022/11/26 05:06:06;;;;;;;2.42;2.22;;;15.00;61.80;;;;;;5054593;28;20257;-69
2022/11/26 05:08:31;;;;;;;3.08;2.22;;;15.00;60.90;;;;;;5054265;28;20233;-69
2022/11/26 05:10:58;;;;;;;3.55;2.50;;;15.00;60.90;;;;;;5053787;28;20262;-70
2022/11/26 05:13:23;;;;;;;2.50;2.30;;;15.00;60.90;;;;;;5054654;28;20269;-72
2022/11/26 05:15:49;;;;;;;3.28;2.22;;;15.00;60.90;;;;;;5054097;28;20250;-70
2022/11/26 05:18:15;;;;;;;2.20;2.00;;;15.00;60.90;;;;;;5053850;28;20184;-71
2022/11/26 05:20:40;;;;;;;2.53;2.33;;;15.00;60.90;;;;;;5054098;28;20183;-72
2022/11/26 05:23:06;;;;;;;3.78;2.28;;;15.00;60.90;;;;;;5054232;28;20629;-70
2022/11/26 05:25:31;;;;;;;2.30;2.08;;;15.00;60.90;;;;;;5053218;28;20519;-71
2022/11/26 05:27:57;;;;;;;2.65;2.45;;;15.00;60.90;;;;;;5054133;28;20625;-69
2022/11/26 05:30:22;;;;;;;2.65;2.20;;;15.00;60.90;;;;;;5054146;28;20187;-69
2022/11/26 05:32:48;;;;;;;3.97;2.55;;;15.00;60.90;;;;;;5053243;28;20186;-69
2022/11/26 05:35:14;;;;;;;2.80;2.50;;;15.00;60.90;;;;;;5053722;28;20190;-70
2022/11/26 05:37:39;;;;;;;2.90;2.60;;;15.00;60.90;;;;;;5053309;28;20183;-71
2022/11/26 05:40:06;;;;;;;3.05;2.75;;;15.00;60.90;;;;;;5053610;28;20629;-70
2022/11/26 05:42:31;;;;;;;2.83;2.50;;;15.00;60.90;;;;;;5053894;28;20175;-71
2022/11/26 05:44:57;;;;;;;2.60;2.40;;;14.90;60.80;;;;;;5054078;28;20325;-70
2022/11/26 05:47:22;;;;;;;2.97;2.78;;;14.90;60.80;;;;;;5053214;28;20373;-68
2022/11/26 05:49:48;;;;;;;3.17;2.58;;;14.90;60.80;;;;;;5053615;28;20229;-68
2022/11/26 05:52:13;;;;;;;2.75;2.47;;;14.90;60.80;;;;;;5053037;28;20606;-69
2022/11/26 05:54:39;;;;;;;3.60;2.30;;;14.90;60.80;;;;;;5053315;28;20354;-70
2022/11/26 05:57:04;;;;;;;3.65;3.00;;;14.90;60.80;;;;;;5053854;28;20353;-70
2022/11/26 05:59:30;;;;;;;2.45;2.25;;;14.90;60.80;;;;;;5052924;28;20257;-70
2022/11/26 06:01:55;;;;;;;3.78;2.80;;;14.90;60.70;;;;;;5053727;28;20604;-69
2022/11/26 06:04:21;;;;;;;3.35;2.70;;;14.90;60.70;;;;;;5053602;28;20171;-69
2022/11/26 06:06:46;;;;;;;2.88;2.33;;;14.90;60.70;;;;;;5052428;28;20235;-69
2022/11/26 06:09:12;;;;;;;2.92;2.55;;;14.90;60.70;;;;;;5053638;28;20221;-70
2022/11/26 06:11:38;;;;;;;2.75;2.33;;;14.90;60.60;;;;;;5053284;28;20182;-71
2022/11/26 06:14:03;;;;;;;3.65;2.55;;;15.00;60.50;;;;;;5052758;28;20213;-72
2022/11/26 06:16:29;;;;;;;2.65;2.45;;;15.10;60.40;;;;;;5053245;28;20273;-72
2022/11/26 06:18:55;;;;;;;3.15;2.65;;;15.30;60.20;;;;;;5053102;28;20174;-72
2022/11/26 06:21:20;;;;;;;2.70;2.50;;;15.40;60.00;;;;;;5052362;28;20514;-71
2022/11/26 06:23:46;;;;;;;2.60;2.40;;;15.70;59.80;;;;;;5052840;28;20530;-71
2022/11/26 06:26:11;;;;;;;2.97;2.67;;;15.90;59.50;;;;;;5052973;28;20203;-70
2022/11/26 06:28:37;;;;;;;2.50;2.30;;;16.10;59.20;;;;;;5051973;28;20324;-69
2022/11/26 06:31:03;;;;;;;2.42;2.30;;;16.40;58.70;;;;;;5053023;28;20292;-68
2022/11/26 06:33:28;;;;;;;2.40;2.20;;;16.70;58.10;;;;;;5053052;28;20185;-69
2022/11/26 06:36:00;;;;;;;2.78;2.45;;;17.00;57.60;;;;;;5051897;28;20171;-72
2022/11/26 06:38:26;;;;;;;2.88;2.67;;;17.20;57.10;;;;;;5052876;28;20652;-71
2022/11/26 06:41:02;;;;;;;2.58;2.38;;;17.40;56.90;;;;;;5052763;28;20268;-71
2022/11/26 06:43:27;;;;;;;3.08;2.63;;;17.50;56.60;;;;;;5052057;28;20175;-69
2022/11/26 06:45:53;;;;;;;2.53;2.33;;;17.60;56.50;;;;;;5051733;28;20756;-69
2022/11/26 06:48:22;;;;;;;3.08;2.45;;;17.60;56.40;;;;;;5052762;28;20751;-68
2022/11/26 06:50:47;;;;;;;2.45;2.28;;;17.60;56.50;;;;;;5051685;28;20186;-69
2022/11/26 06:53:13;;;;;;;2.63;2.40;;;17.50;56.60;;;;;;5052865;28;20175;-69
2022/11/26 06:55:38;;;;;;;2.38;2.17;;;17.50;56.70;;;;;;5051776;28;20174;-70
2022/11/26 06:58:04;;;;;;;2.65;2.33;;;17.50;56.70;;;;;;5052736;28;20552;-69
2022/11/26 07:00:29;;;;;;;2.75;2.33;;;17.50;56.70;;;;;;5052516;28;20614;-68
2022/11/26 07:02:55;;;;;;;2.70;2.33;;;17.50;56.80;;;;;;5051477;28;20175;-69
2022/11/26 07:05:20;;;;;;;2.40;2.20;;;17.40;56.80;;;;;;5052384;28;20171;-68
2022/11/26 07:07:46;;;;;;;2.47;2.28;;;17.40;57.00;;;;;;5052278;28;20207;-68
2022/11/26 07:10:11;;;;;;;2.92;2.63;;;17.30;57.10;;;;;;5052063;28;20175;-70
2022/11/26 07:12:37;;;;;;;2.30;2.10;;;17.30;57.80;;;;;;5052139;28;20179;-70
2022/11/26 07:15:03;;;;;;;2.47;2.28;;;17.30;57.20;;;;;;5052393;28;20225;-71
2022/11/26 07:17:28;;;;;;;2.80;2.25;;;17.40;57.20;;;;;;5051367;28;20230;-71
2022/11/26 07:19:54;;;;;;;2.53;2.33;;;17.40;57.10;;;;;;5052019;28;20258;-70
2022/11/26 07:22:19;;;;;;;2.22;2.03;;;17.50;57.10;;;;;;5052257;28;20171;-71
2022/11/26 07:24:45;;;;;;;2.28;2.08;;;17.60;56.90;;;;;;5051396;28;20179;-69
2022/11/26 07:27:10;;;;;;;2.50;2.30;;;17.70;56.80;;;;;;5052207;28;20210;-69
2022/11/26 07:29:36;;;;;;;2.65;2.45;;;17.70;56.70;;;;;;5051916;28;20172;-69
2022/11/26 07:32:01;;;;;;;1.92;1.80;;;17.80;56.50;;;;;;5051533;28;20171;-67
2022/11/26 07:34:27;;;;;;;3.22;2.50;;;17.90;56.50;;;;;;5052023;28;20697;-69
2022/11/26 07:36:52;;;;;;;2.40;2.20;;;18.00;56.30;;;;;;5051708;28;20661;-69
2022/11/26 07:39:18;;;;;;;2.40;2.28;;;18.10;56.20;;;;;;5051305;28;20266;-71
2022/11/26 07:41:44;;;;;;;2.35;2.15;;;18.10;56.10;;;;;;5051864;28;20262;-70
2022/11/26 07:44:12;;;;;;;2.30;2.03;;;18.20;56.00;;;;;;5052036;28;20258;-69
2022/11/26 07:46:38;;;;;;;2.30;2.13;;;18.20;55.90;;;;;;5050967;28;20217;-68
2022/11/26 07:49:03;;;;;;;2.20;2.08;;;18.20;56.50;;;;;;5052051;28;20270;-68
2022/11/26 07:51:30;;;;;;;1.90;1.80;;;18.10;56.00;;;;;;5052174;28;20205;-68
2022/11/26 07:53:56;;;;;;;2.28;2.08;;;18.00;56.10;;;;;;5051438;28;20254;-70
2022/11/26 07:56:22;;;;;;;1.95;1.85;;;17.90;56.30;;;;;;5052074;28;20222;-69
2022/11/26 07:58:47;;;;;;;2.67;2.40;;;17.80;56.50;;;;;;5054172;28;20485;-69
2022/11/26 08:01:17;;;;;;;2.50;2.30;;;17.70;56.90;;;;;;5055823;28;20632;-68
2022/11/26 08:03:45;;;;;;;1.92;1.73;;;17.60;57.10;;;;;;5055445;28;20214;-68
2022/11/26 08:06:12;;;;;;;2.58;2.38;;;17.40;57.30;;;;;;5055221;28;20206;-68
2022/11/26 08:08:37;;;;;;;2.80;2.33;;;17.40;57.50;;;;;;5055714;28;20179;-68
2022/11/26 08:11:04;;;;;;;2.20;2.00;;;17.30;57.60;;;;;;5055684;28;20344;-69
2022/11/26 08:13:30;;;;;;;1.88;1.77;;;17.20;57.70;;;;;;5055034;28;20175;-70
2022/11/26 08:15:55;;;;;;;2.85;2.58;;;17.20;57.70;;;;;;5055242;28;20653;-69
2022/11/26 08:18:21;;;;;;;2.10;2.00;;;17.20;57.90;;;;;;5055531;28;20182;-71
2022/11/26 08:20:54;;;;;;;2.50;2.28;;;17.20;57.90;;;;;;5054642;28;20175;-70
2022/11/26 08:23:20;;;;;;;1.83;1.70;;;17.20;57.90;;;;;;5055678;28;20176;-60
2022/11/26 08:25:45;;;;;;;2.63;2.42;;;17.30;58.00;;;;;;5054946;28;20601;-64
2022/11/26 08:28:11;;;;;;;3.58;2.42;;;17.40;58.10;;;;;;5054815;28;20190;-63
2022/11/26 08:30:36;;;;;;;3.22;2.13;;;17.30;58.10;;;;;;5054976;28;20195;-63
2022/11/26 08:33:02;;;;;;;2.58;2.35;;;17.40;58.10;;;;;;5055537;28;20270;-64
2022/11/26 08:35:27;;;;;;;5.40;2.55;;;17.30;58.00;;;;;;5054642;28;20167;-64
2022/11/26 08:37:53;;;;;;;4.70;2.42;;;17.30;58.00;;;;;;5055157;28;20175;-65
2022/11/26 08:40:18;;;;;;;4.43;2.33;;;17.30;58.10;;;;;;5055174;28;20633;-64
2022/11/26 08:42:44;;;;;;;3.58;2.50;;;17.20;58.20;;;;;;5054161;28;20179;-63
2022/11/26 08:45:10;;;;;;;4.05;2.50;;;17.20;58.40;;;;;;5055045;28;20280;-62
2022/11/26 08:47:36;;;;;;;2.72;2.40;;;17.20;58.50;;;;;;5054945;28;20227;-64
2022/11/26 08:50:02;;;;;;;4.18;2.45;;;17.20;58.50;;;;;;5054257;28;20171;-63
2022/11/26 08:52:27;;;;;;;6.13;3.30;;;17.30;58.60;;;;;;5054993;28;20186;-64
2022/11/26 08:54:53;;;;;;;3.50;3.20;;;17.30;58.20;;;;;;5054718;28;20171;-63
2022/11/26 08:57:18;;;;;;;4.18;2.75;;;17.30;58.00;;;;;;5054255;28;20175;-63
2022/11/26 08:59:44;;;;;;;4.38;3.10;;;17.40;58.00;;;;;;5054537;28;20182;-63
2022/11/26 09:02:10;;;;;;;4.55;3.08;;;17.40;57.90;;;;;;5054491;28;20181;-63
2022/11/26 09:04:35;;;;;;;3.88;2.63;;;17.40;57.80;;;;;;5053390;28;20236;-62
2022/11/26 09:07:01;;;;;;;3.63;2.80;;;17.40;57.80;;;;;;5054702;28;20211;-68
2022/11/26 09:09:27;;;;;;;4.05;3.17;;;17.40;57.80;;;;;;5053167;28;20167;-65
2022/11/26 09:11:57;;;;;;;5.05;3.40;;;17.40;57.90;;;;;;5054304;28;20542;-65
2022/11/26 09:14:23;;;;;;;3.67;3.05;;;17.40;57.80;;;;;;5054465;28;20179;-66
2022/11/26 09:16:49;;;;;;;4.25;3.22;;;17.40;57.80;;;;;;5053336;28;20230;-66
2022/11/26 09:19:15;;;;;;;3.90;3.20;;;17.30;57.80;;;;;;5054596;28;20175;-66
2022/11/26 09:21:40;;;;;;;5.30;3.63;;;17.30;57.80;;;;;;5054160;28;20175;-66
2022/11/26 09:24:06;;;;;;;4.95;3.53;;;17.30;57.70;;;;;;5053660;28;20633;-65
2022/11/26 09:26:32;;;;;;;5.82;3.42;;;17.40;57.60;;;;;;5053928;28;20268;-66
2022/11/26 09:28:58;;;;;;;4.32;3.00;;;17.40;57.40;;;;;;5054197;28;20202;-65
2022/11/26 09:31:24;;;;;;;4.18;3.45;;;17.40;57.40;;;;;;5053433;28;20707;-66
2022/11/26 09:33:49;;;;;;;4.10;3.42;;;17.40;57.50;;;;;;5054073;28;20167;-66
2022/11/26 09:36:15;;;;;;;4.03;3.40;;;17.30;57.50;;;;;;5053990;28;20566;-66
2022/11/26 09:38:41;;;;;;;7.05;3.72;;;17.30;57.60;;;;;;5053070;28;20189;-66
2022/11/26 09:41:31;;;;;;;5.30;3.70;;;17.20;57.70;;;;;;5053915;28;20172;-66
2022/11/26 09:44:24;;;;;;;3.63;3.10;;;17.30;57.70;;;;;;5053058;28;20174;-66
2022/11/26 09:46:57;;;;;;;5.63;3.63;;;17.30;57.70;;;;;;5053578;28;20209;-66
2022/11/26 09:49:22;;;;;;;4.68;3.70;;;17.30;57.70;;;;;;5052657;28;20179;-65
2022/11/26 09:51:50;;;;;;;5.35;3.90;;;17.40;57.60;;;;;;5051472;28;20517;-65
2022/11/26 09:54:21;;;;;;;3.70;3.13;;;17.40;57.50;;;;;;5052443;28;20217;-65
2022/11/26 09:56:48;;;;;;;5.28;3.92;;;17.40;57.40;;;;;;5053480;28;20234;-65
2022/11/26 09:59:15;;;;;;;6.63;4.30;;;17.40;57.40;;;;;;5051827;28;20179;-65
2022/11/26 10:01:41;;;;;;;5.20;3.70;;;17.30;57.50;;;;;;5052078;28;20328;-66
2022/11/26 10:04:07;;;;;;;4.10;3.40;;;17.30;57.70;;;;;;5053571;28;20262;-66
2022/11/26 10:06:39;;;;;;;4.07;3.55;;;17.30;57.70;;;;;;5052459;28;20304;-66
2022/11/26 10:09:27;;;;;;;4.72;3.90;;;17.30;57.80;;;;;;5053771;28;20176;-66
2022/11/26 10:11:55;;;;;;;5.93;4.20;;;17.30;57.60;;;;;;5053095;28;20174;-66
2022/11/26 10:14:49;;;;;;;6.00;3.88;;;17.40;57.60;;;;;;5052673;28;20186;-66
2022/11/26 10:17:28;;;;;;;4.32;3.40;;;17.40;57.40;;;;;;5052006;28;20231;-66
2022/11/26 10:20:12;;;;;;;4.22;3.83;;;17.40;57.50;;;;;;5051180;28;20178;-66
2022/11/26 10:23:11;;;;;;;9.65;4.30;;;17.40;57.50;;;;;;5052900;28;20197;-65
2022/11/26 10:26:11;;;;;;;5.15;4.65;;;17.30;57.40;;;;;;5051674;28;20233;-65
2022/11/26 10:28:48;;;;;;;5.13;3.97;;;17.30;57.60;;;;;;5050676;28;20210;-66
2022/11/26 10:31:31;;;;;;;4.50;4.10;;;17.30;57.70;;;;;;5053015;28;20179;-65
2022/11/26 10:34:04;;;;;;;4.90;4.40;;;17.40;57.60;;;;;;5052553;28;20182;-66
2022/11/26 10:36:34;;;;;;;8.13;4.40;;;17.40;57.60;;;;;;5051785;28;20171;-66
2022/11/26 10:39:00;;;;;;;5.50;4.13;;;17.40;57.50;;;;;;5053091;28;20236;-66
2022/11/26 10:41:29;;;;;;;4.00;3.70;;;17.40;57.40;;;;;;5052259;28;20171;-66
2022/11/26 10:43:54;;;;;;;7.50;4.20;;;17.40;57.40;;;;;;5051232;28;20179;-66
2022/11/26 10:46:31;;;;;;;6.00;4.15;;;17.40;57.40;;;;;;5052704;28;20534;-65
2022/11/26 10:49:23;;;;;;;6.03;4.18;;;17.30;57.50;;;;;;5052232;28;20189;-66
2022/11/26 10:51:50;;;;;;;6.32;4.13;;;17.30;57.70;;;;;;5049724;28;20210;-68
2022/11/26 10:54:35;;;;;;;6.50;4.55;;;17.30;57.70;;;;;;5051358;28;20179;-66
2022/11/26 10:57:17;;;;;;;4.95;4.25;;;17.40;57.70;;;;;;5051470;28;20175;-66
2022/11/26 10:59:42;;;;;;;5.10;3.90;;;17.50;57.60;;;;;;5052352;28;20540;-66
2022/11/26 11:02:33;;;;;;;5.78;4.25;;;17.40;57.50;;;;;;5051913;28;20626;-66
2022/11/26 11:05:01;;;;;;;5.50;3.97;;;17.50;57.50;;;;;;5052471;28;20560;-66
2022/11/26 11:07:36;;;;;;;5.28;4.30;;;17.40;57.40;;;;;;5052572;28;20229;-66
2022/11/26 11:10:08;;;;;;;8.35;4.22;;;17.40;57.50;;;;;;5050801;28;20269;-66
2022/11/26 11:12:37;;;;;;;6.15;3.80;;;17.30;57.60;;;;;;5052106;28;20273;-66
2022/11/26 11:15:26;;;;;;;4.15;3.75;;;17.30;57.70;;;;;;5052358;28;20594;-66
2022/11/26 11:18:05;;;;;;;4.20;3.80;;;17.40;57.60;;;;;;5051248;28;20262;-66
2022/11/26 11:20:38;;;;;;;6.97;4.32;;;17.40;57.60;;;;;;5052157;28;20237;-66
2022/11/26 11:23:10;;;;;;;4.15;3.75;;;17.50;57.60;;;;;;5051539;28;20995;-65
2022/11/26 11:25:37;;;;;;;4.72;3.78;;;17.50;57.50;;;;;;5051819;28;20625;-65
2022/11/26 11:28:21;;;;;;;4.80;3.78;;;17.40;57.50;;;;;;5051188;28;20242;-65
2022/11/26 11:31:03;;;;;;;6.90;4.10;;;17.40;57.50;;;;;;5050100;28;20175;-65
2022/11/26 11:33:29;;;;;;;6.25;4.35;;;17.40;57.60;;;;;;5056364;28;20174;-66
2022/11/26 11:35:57;;;;;;;4.10;3.70;;;17.40;57.80;;;;;;5058564;28;20205;-66
2022/11/26 11:38:23;;;;;;;4.80;3.53;;;17.40;57.80;;;;;;5058089;28;20175;-66
2022/11/26 11:40:49;;;;;;;4.28;3.50;;;17.40;57.80;;;;;;5058722;28;20175;-66
2022/11/26 11:43:15;;;;;;;6.25;4.13;;;17.50;57.80;;;;;;5058685;28;20676;-66
2022/11/26 11:45:42;;;;;;;4.22;3.55;;;17.40;57.80;;;;;;5057792;28;20258;-65
2022/11/26 11:48:25;;;;;;;6.20;4.03;;;17.40;57.70;;;;;;5058507;28;20225;-65
2022/11/26 11:51:19;;;;;;;4.80;3.90;;;17.40;57.70;;;;;;5056635;28;20649;-66
2022/11/26 11:53:51;;;;;;;4.30;3.63;;;17.40;57.80;;;;;;5057240;28;20178;-66
2022/11/26 11:56:40;;;;;;;4.70;3.95;;;17.40;57.80;;;;;;5057510;28;20186;-65
2022/11/26 11:59:35;;;;;;;5.55;4.30;;;17.40;57.80;;;;;;5056856;28;20182;-65
2022/11/26 12:02:30;;;;;;;4.38;3.67;;;17.50;57.80;;;;;;5057579;28;20179;-65
2022/11/26 12:05:05;;;;;;;5.90;4.00;;;17.50;57.80;;;;;;5056840;28;20653;-65
2022/11/26 12:07:34;;;;;;;5.57;4.03;;;17.50;57.70;;;;;;5057195;28;20245;-66
2022/11/26 12:10:17;;;;;;;4.65;3.75;;;17.50;57.70;;;;;;5058683;28;20211;-66
2022/11/26 12:12:51;;;;;;;5.68;3.72;;;17.50;57.80;;;;;;5057612;28;20175;-66
2022/11/26 12:15:27;;;;;;;5.07;4.00;;;17.40;57.80;;;;;;5057222;28;20313;-66
2022/11/26 12:18:17;;;;;;;4.32;3.67;;;17.50;58.00;;;;;;5056752;28;20230;-66
2022/11/26 12:20:54;;;;;;;6.65;3.85;;;17.50;58.00;;;;;;5055921;28;20261;-66
2022/11/26 12:23:35;;;;;;;6.15;3.83;;;17.50;57.80;;;;;;5057490;28;20189;-65
2022/11/26 12:26:05;;;;;;;4.45;3.58;;;17.50;57.90;;;;;;5056632;28;20316;-65
2022/11/26 12:28:36;;;;;;;5.35;4.30;;;17.50;57.80;;;;;;5057093;28;20213;-65
2022/11/26 12:31:09;;;;;;;4.82;3.67;;;17.50;57.80;;;;;;5057570;28;20175;-65
2022/11/26 12:33:42;;;;;;;4.32;3.92;;;17.40;57.80;;;;;;5057276;28;20179;-66
2022/11/26 12:36:20;;;;;;;6.90;3.83;;;17.40;58.00;;;;;;5058351;28;20175;-66
2022/11/26 12:38:50;;;;;;;6.10;3.58;;;17.40;58.00;;;;;;5057045;28;20163;-66
2022/11/26 12:41:19;;;;;;;6.53;3.80;;;17.40;58.00;;;;;;5056473;28;20192;-66
2022/11/26 12:43:58;;;;;;;5.95;4.05;;;17.50;58.10;;;;;;5055939;28;20179;-66
2022/11/26 12:46:35;;;;;;;5.72;3.95;;;17.50;58.10;;;;;;5053867;28;20573;-65
2022/11/26 12:49:23;;;;;;;4.82;3.78;;;17.50;58.00;;;;;;5053007;28;20206;-65
2022/11/26 12:51:56;;;;;;;4.47;3.17;;;17.50;58.00;;;;;;5054773;28;20174;-65
2022/11/26 12:54:31;;;;;;;3.65;3.33;;;17.40;58.00;;;;;;5053079;28;20546;-66
2022/11/26 12:57:22;;;;;;;6.25;4.07;;;17.40;58.00;;;;;;5053693;28;20186;-67
2022/11/26 12:59:59;;;;;;;4.03;3.30;;;17.40;58.10;;;;;;5053295;28;20175;-66